createdAt,value
2022-10-03T00:03:37.612Z,5.82
2022-10-03T00:09:37.669Z,142.17
2022-10-03T00:15:37.679Z,167.73
2022-10-03T00:21:37.948Z,80.76
2022-10-03T00:27:37.711Z,0.34
2022-10-03T00:33:37.675Z,312.95
2022-10-03T00:39:37.687Z,289.39
2022-10-03T00:49:15.403Z,300.59
2022-10-03T00:55:35.607Z,291.07
2022-10-03T01:01:35.734Z,191.77
2022-10-03T01:07:35.753Z,135.00
2022-10-03T01:13:35.770Z,135.09
2022-10-03T01:19:35.834Z,144.04
2022-10-03T01:25:35.755Z,350.08
2022-10-03T01:31:35.861Z,15.90
2022-10-03T01:37:35.813Z,104.51
2022-10-03T01:43:35.851Z,173.86
2022-10-03T01:49:35.832Z,156.83
2022-10-03T01:55:35.812Z,96.75
2022-10-03T02:01:36.037Z,1.30
2022-10-03T02:07:35.848Z,0.02
2022-10-03T02:13:35.835Z,169.33
2022-10-03T02:22:16.739Z,197.77
2022-10-03T02:28:36.904Z,308.02
2022-10-03T02:34:36.915Z,289.78
2022-10-03T02:40:36.912Z,254.52
2022-10-03T02:46:36.979Z,305.79
2022-10-03T02:52:36.995Z,311.49
2022-10-03T02:58:37.012Z,291.42
2022-10-03T03:04:37.016Z,278.35
2022-10-03T03:10:37.039Z,259.72
2022-10-03T03:16:37.064Z,259.88
2022-10-03T03:22:37.005Z,225.00
2022-10-03T03:28:37.027Z,222.17
2022-10-03T03:34:37.012Z,180.08
2022-10-03T03:40:37.003Z,356.14
2022-10-03T03:46:37.008Z,141.64
2022-10-03T03:52:37.012Z,133.16
2022-10-03T03:58:37.021Z,180.00
2022-10-03T04:04:37.018Z,132.26
2022-10-03T04:10:37.046Z,179.86
2022-10-03T04:16:37.068Z,180.00
2022-10-03T04:22:37.020Z,180.00
2022-10-03T04:28:37.004Z,180.00
2022-10-03T04:34:36.997Z,305.90
2022-10-03T04:40:36.992Z,257.10
2022-10-03T04:46:36.986Z,176.28
2022-10-03T04:52:37.007Z,165.02
2022-10-03T04:58:37.006Z,104.23
2022-10-03T05:04:37.024Z,178.38
2022-10-03T05:10:37.057Z,174.10
2022-10-03T05:16:37.068Z,217.71
2022-10-03T05:22:37.010Z,261.69
2022-10-03T05:28:37.035Z,127.72
2022-10-03T05:34:37.029Z,139.38
2022-10-03T05:40:37.026Z,359.27
2022-10-03T05:46:37.026Z,322.50
2022-10-03T05:52:37.033Z,126.90
2022-10-03T05:58:46.968Z,267.69
2022-10-03T06:04:47.052Z,313.15
2022-10-03T06:10:47.052Z,226.35
2022-10-03T06:16:47.045Z,122.92
2022-10-03T06:22:47.063Z,14.35
2022-10-03T06:28:47.000Z,127.42
2022-10-03T06:34:47.017Z,152.72
2022-10-03T06:40:47.002Z,108.48
2022-10-03T06:46:46.996Z,154.11
2022-10-03T06:52:47.015Z,64.96
2022-10-03T06:58:47.046Z,127.53
2022-10-03T07:04:47.267Z,232.96
2022-10-03T07:10:47.024Z,302.79
2022-10-03T07:16:47.094Z,228.69
2022-10-03T07:22:47.039Z,306.49
2022-10-03T07:28:47.056Z,288.49
2022-10-03T07:34:47.024Z,278.66
2022-10-03T07:40:47.029Z,331.05
2022-10-03T07:46:47.061Z,267.11
2022-10-03T07:52:47.048Z,205.78
2022-10-03T08:10:47.023Z,348.19
2022-10-03T08:16:47.025Z,27.44
2022-10-03T08:22:47.012Z,285.32
2022-10-03T08:28:47.056Z,289.48
2022-10-03T08:34:47.058Z,301.88
2022-10-03T08:40:47.072Z,322.31
2022-10-03T08:46:47.045Z,291.08
2022-10-03T08:52:47.560Z,288.62
2022-10-03T08:58:47.463Z,301.58
2022-10-03T09:04:47.333Z,305.15
2022-10-03T09:10:47.298Z,297.75
2022-10-03T09:16:47.350Z,303.23
2022-10-03T09:22:47.535Z,314.72
2022-10-03T09:28:47.445Z,319.46
2022-10-03T09:34:47.400Z,314.70
2022-10-03T09:40:52.630Z,325.44
2022-10-03T09:46:47.415Z,307.72
2022-10-03T09:52:47.316Z,322.78
2022-10-03T10:02:17.053Z,306.21
2022-10-03T10:08:36.992Z,305.29
2022-10-03T10:14:37.035Z,301.03
2022-10-03T10:20:37.060Z,294.82
2022-10-03T10:26:37.089Z,295.35
2022-10-03T10:32:37.136Z,309.26
2022-10-03T10:38:37.066Z,316.40
2022-10-03T10:44:37.166Z,301.84
2022-10-03T10:50:37.159Z,304.23
2022-10-03T10:56:37.370Z,309.51
2022-10-03T11:02:37.173Z,310.28
2022-10-03T11:08:37.138Z,311.01
2022-10-03T11:14:37.138Z,300.54
2022-10-03T11:20:37.164Z,320.72
2022-10-03T11:26:37.442Z,319.49
2022-10-03T11:32:37.197Z,307.00
2022-10-03T11:38:37.201Z,311.94
2022-10-03T11:44:37.202Z,308.14
2022-10-03T11:50:37.184Z,313.59
2022-10-03T11:56:37.310Z,299.76
2022-10-03T12:02:37.360Z,296.31
2022-10-03T12:08:37.188Z,302.50
2022-10-03T12:14:37.200Z,308.63
2022-10-03T12:20:37.223Z,311.48
2022-10-03T12:26:37.176Z,313.03
2022-10-03T12:32:37.194Z,302.63
2022-10-03T12:38:37.232Z,311.27
2022-10-03T12:44:37.218Z,308.11
2022-10-03T12:50:37.222Z,305.21
2022-10-03T12:56:37.204Z,298.25
2022-10-03T13:02:37.253Z,313.18
2022-10-03T13:08:37.223Z,318.00
2022-10-03T13:14:37.199Z,304.65
2022-10-03T13:20:37.232Z,318.00
2022-10-03T13:26:37.220Z,318.10
2022-10-03T13:32:37.186Z,307.85
2022-10-03T13:38:37.193Z,316.06
2022-10-03T13:44:37.242Z,313.38
2022-10-03T13:50:37.253Z,323.40
2022-10-03T13:56:37.219Z,322.87
2022-10-03T14:02:37.327Z,317.29
2022-10-03T14:08:37.293Z,326.38
2022-10-03T14:14:37.230Z,304.50
2022-10-03T14:20:37.237Z,310.14
2022-10-03T14:26:37.257Z,304.58
2022-10-03T14:32:46.806Z,302.26
2022-10-03T14:38:37.314Z,296.60
2022-10-03T14:44:37.288Z,308.16
2022-10-03T14:50:37.295Z,306.13
2022-10-03T14:56:37.339Z,318.24
2022-10-03T15:02:37.337Z,289.88
2022-10-03T15:08:37.379Z,302.96
2022-10-03T15:14:37.298Z,300.97
2022-10-03T15:20:37.319Z,309.30
2022-10-03T15:26:37.351Z,309.09
2022-10-03T15:32:37.340Z,294.03
2022-10-03T15:38:37.768Z,296.91
2022-10-03T15:44:37.749Z,259.02
2022-10-03T15:50:37.377Z,163.41
2022-10-03T15:56:37.365Z,146.80
2022-10-03T16:02:37.449Z,131.82
2022-10-03T16:08:37.859Z,100.89
2022-10-03T16:14:37.326Z,115.99
2022-10-03T16:20:37.344Z,168.02
2022-10-03T16:26:37.363Z,134.87
2022-10-03T16:32:37.371Z,284.41
2022-10-03T16:38:37.366Z,298.59
2022-10-03T16:44:37.351Z,288.00
2022-10-03T16:50:39.020Z,348.60
2022-10-03T16:56:37.388Z,24.38
2022-10-03T17:02:37.461Z,162.61
2022-10-03T17:08:42.031Z,135.00
2022-10-03T17:14:37.374Z,122.74
2022-10-03T17:20:37.375Z,310.80
2022-10-03T17:26:37.399Z,295.71
2022-10-03T17:32:37.387Z,305.05
2022-10-03T17:38:49.505Z,317.84
2022-10-03T17:44:37.370Z,355.94
2022-10-03T17:50:37.396Z,269.61
2022-10-03T17:56:37.378Z,348.97
2022-10-03T18:02:37.465Z,271.92
2022-10-03T18:08:37.668Z,173.73
2022-10-03T18:16:48.167Z,41.00
2022-10-03T18:22:48.208Z,150.00
2022-10-03T18:28:48.206Z,134.60
2022-10-03T18:34:48.194Z,103.05
2022-10-03T18:41:44.430Z,228.70
2022-10-03T18:47:44.448Z,188.81
2022-10-03T19:05:44.466Z,150.73
2022-10-03T19:11:44.745Z,136.37
2022-10-03T19:17:44.699Z,144.37
2022-10-03T19:23:44.711Z,1.81
2022-10-03T19:29:44.705Z,153.23
2022-10-03T19:35:44.713Z,149.66
2022-10-03T19:41:44.971Z,144.99
2022-10-03T19:47:44.961Z,171.03
2022-10-03T19:53:44.973Z,224.05
2022-10-03T19:59:44.959Z,237.10
2022-10-03T20:05:44.959Z,161.42
2022-10-03T20:11:45.194Z,155.35
2022-10-03T20:17:45.206Z,195.85
2022-10-03T20:23:45.167Z,169.37
2022-10-03T20:29:45.228Z,155.49
2022-10-03T20:35:45.221Z,179.25
2022-10-03T20:41:45.214Z,215.63
2022-10-03T20:47:45.212Z,249.56
2022-10-03T20:53:45.214Z,167.82
2022-10-03T20:59:45.258Z,77.52
2022-10-03T21:05:45.210Z,300.59
2022-10-03T21:11:45.220Z,300.13
2022-10-03T21:17:45.207Z,303.72
2022-10-03T21:23:45.180Z,286.72
2022-10-03T21:29:45.211Z,297.60
2022-10-03T21:35:45.198Z,283.01
2022-10-03T21:41:45.222Z,180.41
2022-10-03T21:47:45.203Z,180.37
2022-10-03T21:55:39.480Z,258.89
2022-10-03T22:01:45.306Z,180.00
2022-10-03T22:07:45.254Z,151.30
2022-10-03T22:13:45.231Z,116.62
2022-10-03T22:19:45.231Z,90.00
2022-10-03T22:25:45.256Z,90.00
2022-10-03T22:31:49.610Z,90.00
2022-10-03T22:37:49.673Z,112.59
2022-10-03T22:43:49.663Z,54.49
2022-10-03T22:49:49.656Z,35.30
2022-10-03T22:55:49.659Z,80.87
2022-10-03T23:01:49.927Z,129.34
2022-10-03T23:07:49.895Z,151.09
2022-10-03T23:13:49.870Z,115.88
2022-10-03T23:19:49.902Z,135.00
2022-10-03T23:25:49.878Z,165.52
2022-10-03T23:31:59.983Z,163.34
2022-10-03T23:37:59.954Z,200.22
2022-10-03T23:43:59.970Z,214.15
2022-10-03T23:50:00.005Z,137.40
2022-10-03T23:55:59.929Z,185.81
